METAR Data
IDs: Format: Raw Decoded Include TAF

Data at: 1843 UTC 26 Oct 2021

KVHN 261835Z AUTO 22019G25KT 4SM HZ CLR 30/M08 A2986 RMK AO2 T02971075
KVHN 261815Z AUTO 22021G26KT 10SM CLR 29/M08 A2986 RMK AO2 T02941083
KVHN 261755Z AUTO 23014G20KT 10SM CLR 29/M07 A2987 RMK AO2 T02921069 10294 20134
KVHN 261735Z AUTO 25012KT 10SM CLR 29/M05 A2989 RMK AO2 T02851048
KVHN 261715Z AUTO 24012G20KT 10SM CLR 29/M02 A2990 RMK AO2 T02851024
KVHN 261655Z AUTO 24012G19KT 10SM CLR 27/00 A2991 RMK AO2 T02751004
KVHN 261635Z AUTO 21018G23KT 10SM CLR 27/00 A2992 RMK AO2 T02731000
KVHN 261615Z AUTO 21018G23KT 10SM CLR 26/00 A2992 RMK AO2 T02620001
KVHN 261555Z AUTO 19012G19KT 10SM CLR 25/01 A2993 RMK AO2 T02520009
KVHN 261535Z AUTO 22016KT 10SM CLR 25/01 A2993 RMK AO2 T02500009
KVHN 261515Z AUTO 22014G17KT 10SM CLR 23/02 A2993 RMK AO2 T02310017
KVHN 261455Z AUTO 20007KT 10SM CLR 19/03 A2993 RMK AO2 T01880029
KVHN 261435Z AUTO 22006KT 10SM CLR 17/03 A2993 RMK AO2 T01690029
KVHN 261415Z AUTO 23007KT 10SM CLR 16/03 A2993 RMK AO2 T01560032
KVHN 261355Z AUTO 23009KT 10SM CLR 16/03 A2993 RMK AO2 T01560031
KVHN 261335Z AUTO 24009KT 10SM CLR 14/03 A2992 RMK AO2 T01430032
KVHN 261315Z AUTO 23010KT 10SM CLR 14/03 A2992 RMK AO2 T01410032
KVHN 261255Z AUTO 22008KT 10SM CLR 15/03 A2992 RMK AO2 T01470033
KVHN 261235Z AUTO 22010KT 10SM CLR 14/03 A2993 RMK AO2 T01350032
KVHN 261215Z AUTO 24008KT 10SM CLR 14/03 A2993 RMK AO2 T01370031
KVHN 261155Z AUTO 22008KT 10SM CLR 15/03 A2993 RMK AO2 T01460033 10190 20146
KVHN 261135Z AUTO 20008KT 10SM CLR 15/03 A2993 RMK AO2 T01540034
KVHN 261115Z AUTO 21011KT 10SM CLR 16/03 A2994 RMK AO2 T01590033
KVHN 261055Z AUTO 22010KT 10SM CLR 16/03 A2993 RMK AO2 T01570030
KVHN 261035Z AUTO 20012KT 10SM CLR 17/03 A2993 RMK AO2 T01720034
KVHN 261015Z AUTO 20014KT 10SM CLR 17/03 A2994 RMK AO2 T01680033
KVHN 260955Z AUTO 20013KT 10SM CLR 17/03 A2994 RMK AO2 T01700029
KVHN 260935Z AUTO 20012KT 10SM CLR 17/02 A2994 RMK AO2 T01700023
KVHN 260915Z AUTO 21011KT 10SM CLR 16/01 A2995 RMK AO2 T01630009
KVHN 260855Z AUTO 22009KT 10SM CLR 16/00 A2996 RMK AO2 T01601002
KVHN 260835Z AUTO 23010KT 10SM CLR 17/00 A2996 RMK AO2 T01671003
KVHN 260815Z AUTO 22011KT 10SM CLR 17/00 A2997 RMK AO2 T01751005
KVHN 260755Z AUTO 21013KT 10SM CLR 19/00 A2997 RMK AO2 T01881003
KVHN 260735Z AUTO 22010KT 10SM CLR 18/M01 A2998 RMK AO2 T01791008
KVHN 260715Z AUTO 22009KT 10SM CLR 18/M01 A2999 RMK AO2 T01761010
KVHN 260655Z AUTO 23008KT 10SM CLR 18/M01 A2999 RMK AO2 T01771011
KVHN 260635Z AUTO 24008KT 10SM CLR 18/M01 A2999 RMK AO2 T01851011
KVHN 260615Z AUTO 25009KT 10SM CLR 19/M01 A3000 RMK AO2 T01901011
KVHN 260555Z AUTO 24008KT 10SM CLR 19/M01 A3000 RMK AO2 T01911012 10300 20185
KVHN 260535Z AUTO 24010KT 10SM CLR 19/M01 A3000 RMK AO2 T01901013
KVHN 260515Z AUTO 24011KT 10SM CLR 19/M01 A3000 RMK AO2 T01911013
KVHN 260455Z AUTO 24009KT 10SM CLR 20/M01 A3000 RMK AO2 T02001011
KVHN 260435Z AUTO 23009KT 10SM CLR 19/M01 A3002 RMK AO2 T01911011
KVHN 260415Z AUTO 25006KT 10SM CLR 20/M01 A3001 RMK AO2 T02011010
KVHN 260355Z AUTO 23009KT 10SM CLR 20/M01 A3001 RMK AO2 T02031008
KVHN 260335Z AUTO 24008KT 10SM CLR 22/M01 A3001 RMK AO2 T02201006
KVHN 260315Z AUTO 24007KT 10SM CLR 23/00 A3001 RMK AO2 T02261003
KVHN 260255Z AUTO 24008KT 10SM CLR 23/00 A3001 RMK AO2 T02261001
KVHN 260235Z AUTO 25007KT 10SM CLR 23/00 A3001 RMK AO2 T02260001
KVHN 260215Z AUTO 25007KT 10SM CLR 23/00 A3001 RMK AO2 T02270000
KVHN 260155Z AUTO 25006KT 10SM CLR 23/00 A3001 RMK AO2 T02261001
KVHN 260135Z AUTO 23008KT 10SM CLR 23/00 A3001 RMK AO2 T02311001
KVHN 260115Z AUTO 20005KT 10SM CLR 24/00 A3000 RMK AO2 T02401001
KVHN 260055Z AUTO 19005KT 10SM CLR 25/00 A3000 RMK AO2 T02521001
KVHN 260035Z AUTO 18005KT 10SM CLR 27/00 A3000 RMK AO2 T02720001
KVHN 260015Z AUTO 17007KT 10SM CLR 29/00 A2999 RMK AO2 T02880001
KVHN 252355Z AUTO 17008KT 10SM CLR 30/00 A2999 RMK AO2 T03011001 10322 20280 403220110
KVHN 252335Z AUTO 19009KT 10SM CLR 31/00 A2999 RMK AO2 T03091000
KVHN 252315Z AUTO 21008KT 10SM CLR 31/00 A3000 RMK AO2 T03121001
KVHN 252255Z AUTO 19009KT 10SM CLR 32/00 A3000 RMK AO2 T03161003
KVHN 252235Z AUTO 22011KT 10SM CLR 32/00 A3000 RMK AO2 T03171003
KVHN 252215Z AUTO 22011KT 10SM CLR 32/00 A3000 RMK AO2 T03181001
KVHN 252155Z AUTO 19010KT 10SM CLR 32/00 A3001 RMK AO2 T03180004
KVHN 252135Z AUTO 20014KT 10SM CLR 32/00 A3001 RMK AO2 T03190002
KVHN 252115Z AUTO 22010KT 10SM CLR 32/01 A3002 RMK AO2 T03180007
KVHN 252055Z AUTO 20014G18KT 10SM CLR 32/01 A3002 RMK AO2 T03180007
KVHN 252035Z AUTO 22013G17KT 10SM CLR 31/00 A3003 RMK AO2 T03130003
KVHN 252015Z AUTO 21012G18KT 10SM CLR 31/00 A3004 RMK AO2 T03130001
KVHN 251955Z AUTO 22011G21KT 10SM CLR 31/00 A3005 RMK AO2 T03100000
KVHN 251935Z AUTO 21015G18KT 10SM CLR 31/00 A3006 RMK AO2 T03080003
KVHN 251915Z AUTO 20015G19KT 10SM CLR 31/00 A3006 RMK AO2 T03060003
KVHN 251855Z AUTO 20013KT 10SM CLR 30/00 A3008 RMK AO2 T03010003
KVHN 251835Z AUTO 21012KT 10SM CLR 30/00 A3009 RMK AO2 T02960000
KVHN 251815Z AUTO 23009KT 200V260 10SM CLR 29/01 A3010 RMK AO2 T02910010
KVHN 251755Z AUTO 22007KT 10SM CLR 28/01 A3011 RMK AO2 T02850015 10288 20110
KVHN 251735Z AUTO 20007KT 180V270 10SM CLR 27/01 A3012 RMK AO2 T02730013
KVHN 251715Z AUTO 20004KT 10SM CLR 27/02 A3012 RMK AO2 T02660022
KVHN 251655Z AUTO 20008KT 10SM CLR 26/02 A3013 RMK AO2 T02560019
KVHN 251635Z AUTO 21008KT 10SM CLR 24/02 A3013 RMK AO2 T02390018
KVHN 251615Z AUTO 20006KT 10SM CLR 22/02 A3014 RMK AO2 T02240018
KVHN 251555Z AUTO 19008KT 10SM CLR 21/01 A3014 RMK AO2 T02110014
KVHN 251535Z AUTO 22009KT 10SM CLR 20/01 A3015 RMK AO2 T01950011
KVHN 251515Z AUTO 22009KT 10SM CLR 18/01 A3015 RMK AO2 T01810008
KVHN 251455Z AUTO 22010KT 10SM CLR 16/01 A3015 RMK AO2 T01610007
KVHN 251435Z AUTO 23007KT 10SM CLR 15/01 A3015 RMK AO2 T01470006
KVHN 251415Z AUTO 22010KT 10SM CLR 13/00 A3014 RMK AO2 T01340001
KVHN 251355Z AUTO 22009KT 10SM CLR 13/00 A3014 RMK AO2 T01310001
KVHN 251335Z AUTO 22009KT 10SM CLR 12/00 A3014 RMK AO2 T01171001
KVHN 251315Z AUTO 22009KT 10SM CLR 11/00 A3014 RMK AO2 T01111003
KVHN 251255Z AUTO 22008KT 10SM CLR 11/00 A3014 RMK AO2 T01131003
KVHN 251235Z AUTO 23010KT 10SM CLR 11/00 A3013 RMK AO2 T01131004
KVHN 251215Z AUTO 23010KT 10SM CLR 11/00 A3012 RMK AO2 T01141004
KVHN 251155Z AUTO 23008KT 10SM CLR 11/00 A3012 RMK AO2 T01131005 10168 20112
KVHN 251135Z AUTO 22008KT 10SM CLR 12/00 A3012 RMK AO2 T01211004
KVHN 251115Z AUTO 23007KT 10SM CLR 12/00 A3011 RMK AO2 T01241003
KVHN 251055Z AUTO 23008KT 10SM CLR 12/00 A3011 RMK AO2 T01241003
KVHN 251035Z AUTO 22009KT 10SM CLR 12/00 A3011 RMK AO2 T01241004
KVHN 251015Z AUTO 21010KT 10SM CLR 12/00 A3011 RMK AO2 T01241005
KVHN 250955Z AUTO 23009KT 10SM CLR 12/M01 A3011 RMK AO2 T01231005
KVHN 250935Z AUTO 23010KT 10SM CLR 13/00 A3011 RMK AO2 T01301004
KVHN 250915Z AUTO 23010KT 10SM CLR 14/00 A3011 RMK AO2 T01371003
KVHN 250855Z AUTO 23011KT 10SM CLR 14/00 A3011 RMK AO2 T01411003
KVHN 250835Z AUTO 22009KT 10SM CLR 14/00 A3011 RMK AO2 T01361001
KVHN 250815Z AUTO 22008KT 10SM CLR 14/00 A3011 RMK AO2 T01440000
KVHN 250755Z AUTO 23011KT 10SM CLR 15/00 A3011 RMK AO2 T01540001
KVHN 250735Z AUTO 23010KT 10SM CLR 16/00 A3011 RMK AO2 T01570003
KVHN 250715Z AUTO 23010KT 10SM CLR 16/00 A3011 RMK AO2 T01560003
KVHN 250655Z AUTO 23008KT 10SM CLR 15/00 A3011 RMK AO2 T01530002